logo
Search for airport 
image banner adimage banner adimage banner ad
image banner ad

ETHB - Bueckeburg

Located in Bueckeburg, Germany

ICAO - ETHB, IATA -

Data provided by Airmate  

General information

Coordinates: N52°16'42" E9°4'56"
Elevation is 229 feet MSL.
Magnetic variation is 3.68° East
View others Airports in Lower Saxony

Operational data

Special qualification required
Current time UTC:
Current local time:
Weather
METAR: ETHB 152020Z VRB02KT 9999 FEW110 BKN250 21/13 Q1009 BLU+BLU+
TAF: TAF ETHB 151920Z 1520/1605 09005KT 9999 NSW FEW050 SCT250 TEMPO 1521/1605 VRB03KT 8000 -RA BKN050 PROB30 1523/1602 VRB15G25KT 3000 TSRA BKN025CB
View NOTAMs / SUP AIP / TFR affecting this airport [VIEW]
Communications frequencies: [VIEW]

Runways:

RWY identifierQFULength (ft)Width (ft)SurfaceLDA (ft)
0878°6010148ASPH5477
26258°6010148ASPH6010

Airport contact information

Address: Bueckeburg Germany

Satellite view of ETHB